Time;durP1;ratioP1;P1;durP2;ratioP2;P2;SDS_P1;SDS_P2;PMS_P1;PMS_P2;Temp;Humidity;BMP_temperature;BMP_pressure;BME280_temperature;BME280_humidity;BME280_pressure;Samples;Min_cycle;Max_cycle;Signal;HPM_P1;HPM_P2
2022/05/16 00:00:36;;;;;;;11.03;7.57;;;;;;;;;;10380022;28;20040;-75
2022/05/16 00:05:36;;;;;;;10.77;7.35;;;;;;;;;;10403358;28;20057;-80
2022/05/16 00:10:37;;;;;;;12.73;8.07;;;;;;;;;;10406468;28;20029;-79
2022/05/16 00:15:37;;;;;;;10.77;7.83;;;;;;;;;;10440062;22;20304;-72
2022/05/16 00:20:37;;;;;;;11.18;8.43;;;;;;;;;;10443682;28;20037;-74
2022/05/16 00:25:38;;;;;;;15.88;8.95;;;;;;;;;;10425969;28;20024;-77
2022/05/16 00:30:38;;;;;;;13.90;9.40;;;;;;;;;;10426165;28;20162;-74
2022/05/16 00:35:38;;;;;;;10.77;7.33;;;;;;;;;;10425723;28;20059;-77
2022/05/16 00:40:39;;;;;;;10.03;7.97;;;;;;;;;;10424979;28;20036;-76
2022/05/16 00:45:39;;;;;;;11.07;7.80;;;;;;;;;;10424413;28;20025;-73
2022/05/16 00:50:40;;;;;;;13.38;8.63;;;;;;;;;;10424705;28;20263;-73
2022/05/16 00:55:42;;;;;;;12.05;7.90;;;;;;;;;;10424701;28;20044;-81
2022/05/16 01:00:43;;;;;;;10.48;7.32;;;;;;;;;;10424243;28;20096;-72
2022/05/16 01:05:44;;;;;;;9.23;7.13;;;;;;;;;;10425089;28;20020;-74
2022/05/16 01:10:44;;;;;;;7.30;6.57;;;;;;;;;;10424357;28;20029;-73
2022/05/16 01:15:46;;;;;;;10.07;7.80;;;;;;;;;;10402275;28;20378;-73
2022/05/16 01:20:52;;;;;;;10.02;7.82;;;;;;;;;;10382577;28;20422;-72
2022/05/16 01:25:52;;;;;;;13.15;7.50;;;;;;;;;;10383694;28;20028;-76
2022/05/16 01:30:54;;;;;;;9.40;6.80;;;;;;;;;;10384180;28;20036;-72
2022/05/16 01:35:55;;;;;;;8.95;6.38;;;;;;;;;;10383460;28;20409;-71
2022/05/16 01:40:56;;;;;;;8.73;6.83;;;;;;;;;;10381776;28;20027;-72
2022/05/16 01:45:57;;;;;;;9.50;6.63;;;;;;;;;;10399654;28;20392;-73
2022/05/16 01:50:59;;;;;;;9.73;6.75;;;;;;;;;;10381987;28;20026;-76
2022/05/16 01:56:00;;;;;;;10.85;6.82;;;;;;;;;;10398744;28;20025;-71
2022/05/16 02:01:02;;;;;;;8.90;6.60;;;;;;;;;;10365039;28;20029;-73
2022/05/16 02:06:02;;;;;;;10.05;6.85;;;;;;;;;;10381092;28;20272;-70
2022/05/16 02:11:03;;;;;;;13.77;7.28;;;;;;;;;;10381994;28;20025;-77
2022/05/16 02:16:03;;;;;;;13.40;6.65;;;;;;;;;;10381621;28;20065;-72
2022/05/16 02:26:23;;;;;;;12.40;8.10;;;;;;;;;;10399625;28;20029;-72
2022/05/16 02:31:24;;;;;;;13.70;7.65;;;;;;;;;;10381948;28;20033;-75
2022/05/16 02:36:24;;;;;;;9.10;7.23;;;;;;;;;;10381670;28;20076;-72
2022/05/16 02:41:24;;;;;;;14.40;7.93;;;;;;;;;;10381343;28;20292;-75
2022/05/16 02:46:24;;;;;;;14.20;8.20;;;;;;;;;;10380922;28;20036;-71
2022/05/16 02:51:25;;;;;;;10.00;7.32;;;;;;;;;;10380932;28;20060;-77
2022/05/16 02:56:25;;;;;;;10.07;6.63;;;;;;;;;;10381373;28;20036;-73
2022/05/16 03:01:26;;;;;;;11.55;6.68;;;;;;;;;;10381018;28;20087;-76
2022/05/16 03:06:26;;;;;;;8.32;6.88;;;;;;;;;;10380914;28;20025;-77
2022/05/16 03:11:27;;;;;;;13.05;6.70;;;;;;;;;;10381078;28;20025;-72
2022/05/16 03:16:27;;;;;;;11.95;7.50;;;;;;;;;;10381323;28;20053;-79
2022/05/16 03:21:27;;;;;;;9.90;6.90;;;;;;;;;;10397492;28;20425;-77
2022/05/16 03:26:27;;;;;;;8.57;7.25;;;;;;;;;;10396870;28;20064;-72
2022/05/16 03:31:28;;;;;;;8.68;7.53;;;;;;;;;;10398120;28;20038;-74
2022/05/16 03:36:28;;;;;;;14.10;8.77;;;;;;;;;;10398069;28;20056;-76
2022/05/16 03:41:28;;;;;;;14.57;8.93;;;;;;;;;;10404571;28;20036;-78
2022/05/16 03:46:29;;;;;;;14.00;9.63;;;;;;;;;;10405067;28;20072;-71
2022/05/16 03:51:29;;;;;;;13.55;9.20;;;;;;;;;;10405091;28;20122;-72
2022/05/16 03:56:29;;;;;;;16.33;10.00;;;;;;;;;;10403448;28;20025;-76
2022/05/16 04:01:30;;;;;;;19.63;10.23;;;;;;;;;;10387275;28;20021;-74
2022/05/16 04:06:34;;;;;;;13.00;9.48;;;;;;;;;;10405113;28;20260;-72
2022/05/16 04:11:34;;;;;;;11.18;7.18;;;;;;;;;;10403476;28;20509;-73
2022/05/16 04:16:34;;;;;;;10.27;7.93;;;;;;;;;;10401978;28;20144;-70
2022/05/16 04:21:35;;;;;;;15.55;10.65;;;;;;;;;;10401437;28;20021;-75
2022/05/16 04:26:36;;;;;;;13.95;8.10;;;;;;;;;;10391041;28;20517;-71
2022/05/16 04:31:36;;;;;;;14.07;8.98;;;;;;;;;;10379603;28;20519;-69
2022/05/16 04:36:39;;;;;;;9.97;7.50;;;;;;;;;;10360874;28;20022;-73
2022/05/16 04:46:59;;;;;;;8.77;7.10;;;;;;;;;;10357811;28;20498;-69
2022/05/16 04:51:59;;;;;;;10.13;6.07;;;;;;;;;;10374139;28;20030;-73
2022/05/16 04:57:00;;;;;;;11.30;6.50;;;;;;;;;;10357895;28;20759;-72
2022/05/16 05:02:00;;;;;;;10.40;6.50;;;;;;;;;;10361062;28;20097;-69
2022/05/16 05:07:00;;;;;;;7.28;5.72;;;;;;;;;;10359962;28;20152;-72
2022/05/16 05:17:21;;;;;;;12.32;5.72;;;;;;;;;;10360534;28;20501;-72
2022/05/16 05:22:22;;;;;;;10.50;6.72;;;;;;;;;;10359677;28;20040;-74
2022/05/16 05:27:23;;;;;;;8.80;6.13;;;;;;;;;;10358982;28;20433;-75
2022/05/16 05:32:23;;;;;;;9.18;6.68;;;;;;;;;;10342807;28;20022;-69
2022/05/16 05:37:23;;;;;;;12.48;5.97;;;;;;;;;;10358371;28;20401;-73
2022/05/16 05:42:23;;;;;;;8.82;5.55;;;;;;;;;;10359780;28;20030;-71
2022/05/16 05:47:25;;;;;;;12.25;4.90;;;;;;;;;;10357908;28;20029;-74
2022/05/16 05:52:28;;;;;;;9.73;5.90;;;;;;;;;;10341203;28;20535;-74
2022/05/16 05:57:28;;;;;;;11.23;5.05;;;;;;;;;;10358266;28;20025;-75
2022/05/16 06:02:28;;;;;;;8.35;4.80;;;;;;;;;;10358498;28;20040;-79
2022/05/16 06:07:29;;;;;;;9.13;4.20;;;;;;;;;;10356834;28;20108;-75
2022/05/16 06:12:29;;;;;;;15.50;5.60;;;;;;;;;;10357189;28;20022;-70
2022/05/16 06:17:29;;;;;;;7.85;5.00;;;;;;;;;;10358007;28;20058;-77
2022/05/16 06:22:34;;;;;;;7.90;5.18;;;;;;;;;;10340620;28;20029;-70
2022/05/16 06:27:34;;;;;;;10.77;5.53;;;;;;;;;;10358334;28;20030;-69
2022/05/16 06:32:34;;;;;;;10.30;4.83;;;;;;;;;;10356597;28;20040;-69
2022/05/16 06:37:35;;;;;;;11.23;5.10;;;;;;;;;;10340273;28;20486;-75
2022/05/16 06:42:36;;;;;;;9.07;3.58;;;;;;;;;;10357853;28;20485;-68
2022/05/16 06:47:36;;;;;;;6.35;3.80;;;;;;;;;;10357573;28;20126;-76
2022/05/16 06:52:37;;;;;;;10.90;4.07;;;;;;;;;;10357788;28;20022;-74
2022/05/16 06:57:38;;;;;;;11.80;4.53;;;;;;;;;;10358015;28;20065;-73
2022/05/16 07:02:39;;;;;;;12.13;3.95;;;;;;;;;;10356338;28;20036;-70
2022/05/16 07:07:39;;;;;;;6.43;4.67;;;;;;;;;;10355938;28;20032;-69
2022/05/16 07:12:39;;;;;;;7.03;4.53;;;;;;;;;;10359094;28;20033;-72
2022/05/16 07:17:40;;;;;;;7.63;5.13;;;;;;;;;;10365237;28;20056;-73
2022/05/16 07:22:41;;;;;;;7.93;4.38;;;;;;;;;;10364041;28;20049;-72
2022/05/16 07:27:57;;;;;;;10.32;4.28;;;;;;;;;;10347512;28;20037;-70
2022/05/16 07:32:58;;;;;;;10.35;4.25;;;;;;;;;;10363799;28;20038;-70
2022/05/16 07:37:58;;;;;;;9.77;3.70;;;;;;;;;;10364830;28;20049;-70
2022/05/16 07:42:59;;;;;;;8.13;4.63;;;;;;;;;;10346189;28;20398;-69
2022/05/16 07:48:03;;;;;;;11.57;4.32;;;;;;;;;;10364818;28;20038;-69
2022/05/16 07:53:05;;;;;;;9.95;5.15;;;;;;;;;;10362814;28;20034;-73
2022/05/16 07:58:05;;;;;;;7.53;4.80;;;;;;;;;;10364196;28;20026;-69
2022/05/16 08:03:09;;;;;;;14.52;6.22;;;;;;;;;;10363998;28;20056;-73
2022/05/16 08:13:29;;;;;;;8.05;4.35;;;;;;;;;;10362993;28;20233;-71
2022/05/16 08:18:29;;;;;;;8.13;4.43;;;;;;;;;;10345590;28;20022;-72
2022/05/16 08:23:30;;;;;;;8.63;4.47;;;;;;;;;;10363403;28;20465;-75
2022/05/16 08:28:31;;;;;;;7.13;3.45;;;;;;;;;;10361366;28;20030;-73
2022/05/16 08:33:33;;;;;;;15.15;3.33;;;;;;;;;;10345014;28;20049;-70
2022/05/16 08:44:01;;;;;;;7.78;2.90;;;;;;;;;;10361135;28;20413;-69
2022/05/16 08:49:24;;;;;;;5.03;2.10;;;;;;;;;;10360783;28;20018;-73
2022/05/16 08:54:32;;;;;;;7.15;1.65;;;;;;;;;;10360198;28;20498;-76
2022/05/16 08:59:35;;;;;;;2.33;1.20;;;;;;;;;;10344180;28;20057;-68
2022/05/16 09:04:43;;;;;;;3.83;1.23;;;;;;;;;;10343730;28;20028;-71
2022/05/16 09:09:47;;;;;;;3.97;1.38;;;;;;;;;;10343253;28;20045;-77
2022/05/16 09:14:51;;;;;;;6.35;1.42;;;;;;;;;;10359387;28;20529;-70
2022/05/16 09:20:00;;;;;;;3.93;1.43;;;;;;;;;;10361205;28;20020;-70
2022/05/16 09:25:01;;;;;;;4.65;0.98;;;;;;;;;;10343567;28;20390;-75
2022/05/16 09:30:01;;;;;;;2.43;1.27;;;;;;;;;;10359239;28;20037;-73
2022/05/16 09:35:04;;;;;;;8.02;1.17;;;;;;;;;;10341635;28;20397;-70
2022/05/16 09:40:05;;;;;;;4.63;1.15;;;;;;;;;;10342491;28;20053;-70
2022/05/16 09:45:18;;;;;;;4.07;1.00;;;;;;;;;;10358786;28;20116;-74
2022/05/16 09:50:23;;;;;;;3.40;1.25;;;;;;;;;;10360780;28;20050;-69
2022/05/16 09:55:29;;;;;;;3.37;0.80;;;;;;;;;;10358764;28;20475;-70
2022/05/16 10:00:30;;;;;;;1.95;1.08;;;;;;;;;;10359327;28;20041;-77
2022/05/16 10:05:32;;;;;;;6.13;1.25;;;;;;;;;;10359018;28;20073;-70
2022/05/16 10:10:37;;;;;;;1.88;0.70;;;;;;;;;;10357655;28;20022;-71
2022/05/16 10:15:37;;;;;;;;;;;;;;;;;;10357741;28;20054;-74
2022/05/16 10:20:40;;;;;;;1.73;0.90;;;;;;;;;;10341227;28;19971;-70
2022/05/16 10:25:45;;;;;;;1.45;0.80;;;;;;;;;;10359633;28;20041;-70
2022/05/16 10:36:07;;;;;;;2.08;1.02;;;;;;;;;;10357618;28;20030;-70
2022/05/16 10:41:10;;;;;;;3.00;0.90;;;;;;;;;;10356715;28;20350;-71
2022/05/16 10:46:14;;;;;;;3.10;0.90;;;;;;;;;;10332824;28;20029;-74
2022/05/16 10:51:16;;;;;;;1.65;0.85;;;;;;;;;;10352720;28;20646;-70
2022/05/16 10:56:22;;;;;;;1.00;0.75;;;;;;;;;;10354302;28;20516;-68
2022/05/16 11:01:31;;;;;;;6.53;1.58;;;;;;;;;;10337201;28;20934;-76
2022/05/16 11:06:50;;;;;;;4.72;1.60;;;;;;;;;;10347798;28;20037;-74
2022/05/16 11:11:55;;;;;;;5.70;1.65;;;;;;;;;;10338082;28;20506;-76
2022/05/16 11:16:59;;;;;;;4.00;1.40;;;;;;;;;;10384283;28;20132;-74
2022/05/16 11:22:19;;;;;;;2.20;1.50;;;;;;;;;;10395975;28;20041;-70
2022/05/16 11:27:33;;;;;;;2.55;1.40;;;;;;;;;;10379593;28;20112;-73
2022/05/16 11:32:46;;;;;;;2.67;2.08;;;;;;;;;;10378242;28;20567;-72
2022/05/16 11:37:56;;;;;;;6.75;4.22;;;;;;;;;;10396521;28;20024;-74
2022/05/16 11:42:59;;;;;;;9.88;2.20;;;;;;;;;;10430264;28;20025;-73
2022/05/16 11:48:06;;;;;;;8.13;1.42;;;;;;;;;;10435673;28;20156;-69
2022/05/16 11:53:24;;;;;;;0.80;0.80;;;;;;;;;;10435976;28;20508;-73
2022/05/16 12:04:05;;;;;;;3.72;1.40;;;;;;;;;;10444005;28;20516;-75
2022/05/16 12:09:16;;;;;;;9.80;1.55;;;;;;;;;;10427003;28;20572;-72
2022/05/16 12:14:23;;;;;;;2.13;1.25;;;;;;;;;;10382227;28;20058;-73
2022/05/16 12:19:26;;;;;;;4.17;1.97;;;;;;;;;;10344730;28;20018;-69
2022/05/16 12:24:46;;;;;;;7.00;1.02;;;;;;;;;;10343718;28;20026;-74
2022/05/16 12:29:52;;;;;;;2.22;1.05;;;;;;;;;;10336653;28;20030;-72
2022/05/16 12:34:58;;;;;;;2.38;1.27;;;;;;;;;;10344587;28;20032;-72
2022/05/16 12:40:04;;;;;;;2.35;1.38;;;;;;;;;;10343423;28;20036;-74
2022/05/16 12:45:15;;;;;;;2.97;1.55;;;;;;;;;;10375286;28;20569;-70
2022/05/16 12:50:15;;;;;;;9.65;1.20;;;;;;;;;;10332313;28;20042;-72
2022/05/16 12:55:25;;;;;;;2.97;1.02;;;;;;;;;;10336063;28;20706;-70
2022/05/16 13:00:28;;;;;;;4.47;0.90;;;;;;;;;;10340317;28;20109;-72
2022/05/16 13:05:45;;;;;;;2.35;0.90;;;;;;;;;;10342257;28;20088;-74
2022/05/16 13:10:48;;;;;;;3.35;1.10;;;;;;;;;;10359537;28;20486;-75
2022/05/16 13:16:03;;;;;;;1.55;0.95;;;;;;;;;;10342545;28;20399;-74
2022/05/16 13:21:10;;;;;;;4.78;1.35;;;;;;;;;;10342740;28;20542;-72
2022/05/16 13:31:33;;;;;;;2.58;1.30;;;;;;;;;;10366204;28;20030;-75
2022/05/16 13:36:33;;;;;;;2.55;1.50;;;;;;;;;;10340535;28;20166;-73
2022/05/16 13:41:33;;;;;;;1.73;1.50;;;;;;;;;;10365275;28;20620;-73
2022/05/16 13:46:34;;;;;;;3.83;1.27;;;;;;;;;;10356913;28;20033;-70
2022/05/16 13:51:40;;;;;;;6.77;2.13;;;;;;;;;;10323143;28;20032;-73
2022/05/16 13:56:45;;;;;;;3.13;1.48;;;;;;;;;;10335022;28;20038;-74
2022/05/16 14:01:58;;;;;;;1.83;1.27;;;;;;;;;;10319018;28;20509;-75
2022/05/16 14:07:03;;;;;;;5.68;1.70;;;;;;;;;;10337341;28;20457;-73
2022/05/16 14:12:05;;;;;;;2.92;1.60;;;;;;;;;;10324346;28;20022;-74
2022/05/16 14:17:06;;;;;;;4.72;1.48;;;;;;;;;;10331375;28;20421;-72
2022/05/16 14:22:09;;;;;;;4.68;1.52;;;;;;;;;;10335313;28;20046;-73
2022/05/16 14:27:23;;;;;;;4.57;2.75;;;;;;;;;;10333433;28;20037;-76
2022/05/16 14:32:23;;;;;;;3.33;2.25;;;;;;;;;;10340444;28;20032;-74
2022/05/16 14:37:27;;;;;;;3.42;1.70;;;;;;;;;;10354317;28;20026;-73
2022/05/16 14:42:28;;;;;;;7.60;2.53;;;;;;;;;;10350426;28;20095;-74
2022/05/16 14:47:32;;;;;;;7.20;1.80;;;;;;;;;;10354387;28;20030;-68
2022/05/16 14:52:33;;;;;;;9.07;2.20;;;;;;;;;;10354547;28;20037;-70
2022/05/16 14:57:34;;;;;;;4.90;1.95;;;;;;;;;;10354799;28;20026;-72
2022/05/16 15:07:53;;;;;;;7.90;2.35;;;;;;;;;;10356400;28;20022;-73
2022/05/16 15:12:54;;;;;;;2.33;1.83;;;;;;;;;;10353178;28;20105;-69
2022/05/16 15:17:54;;;;;;;8.60;1.95;;;;;;;;;;10351047;28;20046;-74
2022/05/16 15:22:54;;;;;;;3.40;1.90;;;;;;;;;;10352122;28;20359;-75
2022/05/16 15:27:55;;;;;;;4.37;2.07;;;;;;;;;;10352422;28;20099;-73
2022/05/16 15:32:55;;;;;;;3.03;2.40;;;;;;;;;;10355788;28;20556;-74
2022/05/16 15:37:55;;;;;;;6.47;2.58;;;;;;;;;;10362606;28;20072;-72
2022/05/16 15:42:56;;;;;;;5.78;2.30;;;;;;;;;;10397018;28;20018;-72
2022/05/16 15:47:57;;;;;;;7.23;2.70;;;;;;;;;;10350472;28;20521;-74
2022/05/16 15:52:57;;;;;;;5.10;2.53;;;;;;;;;;10340213;28;20026;-72
2022/05/16 15:57:57;;;;;;;4.53;2.23;;;;;;;;;;10340596;28;20406;-75
2022/05/16 16:02:58;;;;;;;6.53;2.90;;;;;;;;;;10341040;28;20033;-69
2022/05/16 16:13:21;;;;;;;6.10;2.72;;;;;;;;;;10354475;28;20107;-74
2022/05/16 16:18:22;;;;;;;12.23;3.13;;;;;;;;;;10325708;28;20050;-70
2022/05/16 16:23:23;;;;;;;7.32;2.30;;;;;;;;;;10312424;28;20532;-76
2022/05/16 16:28:24;;;;;;;7.93;2.28;;;;;;;;;;10341036;28;20109;-73
2022/05/16 16:33:25;;;;;;;9.10;2.67;;;;;;;;;;10330829;28;20025;-73
2022/05/16 16:38:25;;;;;;;5.32;3.08;;;;;;;;;;10339886;28;20697;-74
2022/05/16 16:43:42;;;;;;;3.93;2.50;;;;;;;;;;10460479;23;20040;-73
2022/05/16 16:48:43;;;;;;;10.23;2.83;;;;;;;;;;10484992;28;20019;-75
2022/05/16 16:59:03;;;;;;;5.25;2.67;;;;;;;;;;10497502;28;20114;-73
2022/05/16 17:04:05;;;;;;;10.45;3.42;;;;;;;;;;10468979;28;20028;-78
2022/05/16 17:09:05;;;;;;;6.28;3.08;;;;;;;;;;10483679;28;20031;-79
2022/05/16 17:14:06;;;;;;;11.02;2.97;;;;;;;;;;10482227;28;20024;-77
2022/05/16 17:19:07;;;;;;;7.40;2.67;;;;;;;;;;10477411;23;20132;-80
2022/05/16 17:24:08;;;;;;;5.85;3.03;;;;;;;;;;10414324;28;20029;-76
2022/05/16 17:29:09;;;;;;;5.63;2.40;;;;;;;;;;10421060;28;20462;-78
2022/05/16 17:34:11;;;;;;;3.65;2.35;;;;;;;;;;10422093;28;20029;-80
2022/05/16 17:39:12;;;;;;;6.57;2.80;;;;;;;;;;10418893;28;20021;-73
2022/05/16 17:44:13;;;;;;;13.88;3.13;;;;;;;;;;10422917;28;20036;-74
2022/05/16 17:49:14;;;;;;;9.93;2.70;;;;;;;;;;10419979;28;20040;-78
2022/05/16 17:54:16;;;;;;;10.65;2.85;;;;;;;;;;10436203;28;20025;-77
2022/05/16 17:59:17;;;;;;;4.82;2.47;;;;;;;;;;10421557;28;20029;-77
2022/05/16 18:04:17;;;;;;;10.85;4.22;;;;;;;;;;10383695;28;20040;-77
2022/05/16 18:09:18;;;;;;;12.15;3.30;;;;;;;;;;10379816;28;20030;-77
2022/05/16 18:14:19;;;;;;;9.07;3.83;;;;;;;;;;10396049;28;20648;-78
2022/05/16 18:19:19;;;;;;;10.02;4.40;;;;;;;;;;10395243;28;20053;-77
2022/05/16 18:24:20;;;;;;;13.18;4.80;;;;;;;;;;10378315;28;20519;-76
2022/05/16 18:29:20;;;;;;;14.52;5.97;;;;;;;;;;10396171;28;20036;-75
2022/05/16 18:34:22;;;;;;;34.53;7.72;;;;;;;;;;10396466;28;20068;-74
2022/05/16 18:39:22;;;;;;;21.88;6.95;;;;;;;;;;10395597;28;20064;-73
2022/05/16 18:55:01;;;;;;;8.98;5.00;;;;;;;;;;10395963;28;20033;-77
2022/05/16 19:00:03;;;;;;;15.68;5.80;;;;;;;;;;10395688;28;20026;-77
2022/05/16 19:05:05;;;;;;;12.77;5.97;;;;;;;;;;10378443;28;20033;-78
2022/05/16 19:10:07;;;;;;;13.93;6.00;;;;;;;;;;10397216;28;20056;-78
2022/05/16 19:15:08;;;;;;;10.93;4.47;;;;;;;;;;10402121;28;20040;-77
2022/05/16 19:20:09;;;;;;;20.42;4.00;;;;;;;;;;10386050;28;20112;-78
2022/05/16 19:25:11;;;;;;;14.85;4.82;;;;;;;;;;10374988;28;20059;-78
2022/05/16 19:35:31;;;;;;;8.18;4.00;;;;;;;;;;10403275;28;20037;-73
2022/05/16 19:40:32;;;;;;;6.20;3.65;;;;;;;;;;10370221;28;20025;-80
2022/05/16 19:45:33;;;;;;;8.07;4.13;;;;;;;;;;10375861;28;20083;-73
2022/05/16 19:50:33;;;;;;;20.98;12.27;;;;;;;;;;10377494;28;20096;-77
2022/05/16 19:55:34;;;;;;;19.80;6.13;;;;;;;;;;10384264;28;20033;-74
2022/05/16 20:00:34;;;;;;;6.35;4.28;;;;;;;;;;10394094;28;20267;-73
2022/05/16 20:05:34;;;;;;;8.07;4.13;;;;;;;;;;10398656;28;20022;-76
2022/05/16 20:10:35;;;;;;;5.60;4.63;;;;;;;;;;10381909;28;20036;-77
2022/05/16 20:15:36;;;;;;;6.53;4.90;;;;;;;;;;10370274;28;20398;-77
2022/05/16 20:20:37;;;;;;;4.13;3.60;;;;;;;;;;10372964;28;20038;-76
2022/05/16 20:25:37;;;;;;;7.40;3.67;;;;;;;;;;10367986;28;20068;-75
2022/05/16 20:30:39;;;;;;;5.10;3.58;;;;;;;;;;10398808;28;20125;-73
2022/05/16 20:35:41;;;;;;;5.05;3.75;;;;;;;;;;10399215;28;20497;-74
2022/05/16 20:40:44;;;;;;;12.55;6.22;;;;;;;;;;10402141;28;20025;-71
2022/05/16 20:45:44;;;;;;;6.68;2.80;;;;;;;;;;10384638;28;20034;-73
2022/05/16 20:50:45;;;;;;;11.05;4.10;;;;;;;;;;10401972;28;20107;-71
2022/05/16 20:55:45;;;;;;;6.03;3.25;;;;;;;;;;10385020;28;20021;-76
2022/05/16 21:00:49;;;;;;;9.32;3.58;;;;;;;;;;10438271;23;20064;-73
2022/05/16 21:05:50;;;;;;;6.10;3.42;;;;;;;;;;10459407;28;20484;-75
2022/05/16 21:10:51;;;;;;;4.95;3.40;;;;;;;;;;10442112;28;20017;-72
2022/05/16 21:15:54;;;;;;;4.82;3.55;;;;;;;;;;10458637;28;20484;-75
2022/05/16 21:20:54;;;;;;;5.22;3.25;;;;;;;;;;10441780;28;20021;-72
2022/05/16 21:25:54;;;;;;;4.57;4.10;;;;;;;;;;10442012;28;20024;-74
2022/05/16 21:30:55;;;;;;;6.90;4.88;;;;;;;;;;10440043;28;20032;-76
2022/05/16 21:35:56;;;;;;;8.00;4.50;;;;;;;;;;10441684;28;20461;-74
2022/05/16 21:40:56;;;;;;;7.90;3.53;;;;;;;;;;10457348;28;20025;-71
2022/05/16 21:45:56;;;;;;;5.78;4.50;;;;;;;;;;10441188;28;20118;-75
2022/05/16 21:50:57;;;;;;;6.63;4.55;;;;;;;;;;10441114;28;20029;-77
2022/05/16 21:56:00;;;;;;;11.37;5.17;;;;;;;;;;10440374;28;20116;-75
2022/05/16 22:01:00;;;;;;;7.45;4.15;;;;;;;;;;10473643;28;20375;-75
2022/05/16 22:06:01;;;;;;;5.17;3.80;;;;;;;;;;10481519;28;20377;-72
2022/05/16 22:11:01;;;;;;;7.80;5.20;;;;;;;;;;10481277;28;20028;-77
2022/05/16 22:16:01;;;;;;;4.47;3.20;;;;;;;;;;10481902;28;20081;-72
2022/05/16 22:21:02;;;;;;;4.57;3.47;;;;;;;;;;10448008;28;20016;-75
2022/05/16 22:26:02;;;;;;;7.30;3.70;;;;;;;;;;10463871;28;20282;-73
2022/05/16 22:31:02;;;;;;;5.65;3.67;;;;;;;;;;10447373;28;20073;-71
2022/05/16 22:36:03;;;;;;;6.60;3.72;;;;;;;;;;10481744;28;20028;-71
2022/05/16 22:41:04;;;;;;;7.33;4.53;;;;;;;;;;10463255;28;20024;-74
2022/05/16 22:46:04;;;;;;;7.25;3.78;;;;;;;;;;10481983;28;20278;-76
2022/05/16 22:51:04;;;;;;;4.93;4.43;;;;;;;;;;10480144;28;20028;-73
2022/05/16 22:56:04;;;;;;;8.30;4.25;;;;;;;;;;10464230;28;20772;-73
2022/05/16 23:01:05;;;;;;;6.93;4.38;;;;;;;;;;10463083;28;20056;-71
2022/05/16 23:06:09;;;;;;;5.82;4.20;;;;;;;;;;10479621;28;20039;-75
2022/05/16 23:11:09;;;;;;;4.15;3.75;;;;;;;;;;10463274;28;20569;-72
2022/05/16 23:16:09;;;;;;;6.53;4.40;;;;;;;;;;10462898;28;20082;-71
2022/05/16 23:21:10;;;;;;;6.22;4.32;;;;;;;;;;10480531;28;20107;-76
2022/05/16 23:26:10;;;;;;;9.20;4.13;;;;;;;;;;10479508;28;20479;-73
2022/05/16 23:31:11;;;;;;;7.78;4.00;;;;;;;;;;10478779;28;20041;-70
2022/05/16 23:36:14;;;;;;;6.53;4.20;;;;;;;;;;10480443;28;20056;-71
2022/05/16 23:41:14;;;;;;;7.95;4.32;;;;;;;;;;10460698;28;20027;-70
2022/05/16 23:46:15;;;;;;;5.82;3.85;;;;;;;;;;10478091;28;20465;-70
2022/05/16 23:51:15;;;;;;;6.40;3.77;;;;;;;;;;10478573;28;20078;-70
2022/05/16 23:56:15;;;;;;;5.43;3.30;;;;;;;;;;10465943;28;20032;-75
